Aérodrome :
LOGIN :

S'inscrire | Disclaimer

   EN    FR    IT 

 










Légende :    VFR   VFR Marginal   IFR   IFR Intensif   IFR Très Intensif
Visi : 
Plafond : 
>= 8 km
>= 3000ft
5 à 8 km
1000 à 3000 ft
1500m à 5 km
500 à 1000 ft
800 à 1500m
200 à 500 ft
< 800m
< 200 ft
Symboles :   Orages  Brouillard  Fortes neiges  Fortes précipitations  Vent > 20 kt
SIGMETs :   Divers  Orages  Givrage  Turbulence  Onde Orograph.  Cendres Volcan.







- Altitude de l'aérodrome : 741 ft
- Code IATA : PED


LKPD - Pardubice AB

DERNIER METAR :
  • 140800Z 15007KT 9999 FEW031 SCT041 BKN095 03/00 Q0995 NOSIG RMK BLU BLU

METARs EXPIRÉS :
  • 140700Z 18010KT 9999 SCT032 BKN130 BKN170 04/M01 Q0995 NOSIG RMK BLU BLU
  • 140600Z 21012KT CAVOK 05/M01 Q0995 NOSIG RMK BLU BLU

TAF TAF LKPD
Valide du 14 à 06h jusqu'au 15 à 06h UTC


140500Z 1406/1506 23015G25KT 9999 SCT030 BKN045
TEMPO 1406/1411 7000 SHRA SCT020 BKN030
TEMPO 1410/1414 25022G34KT
BECMG 1411/1413 SCT045
BECMG 1420/1422 17008KT
BECMG 1502/1504 BKN030
TEMPO 1503/1506 4000 SNRA SCT010 BKN020
Pas de NOTAMs connus pour ce terrain.



MET'MAP, la Météo Aéronautique d'un coup d'oeil ! - Copyright ORBIFLY Décembre 2007 - Disclaimer

ORBIFLY MET'MAP TEAM :

Programmation & Développement : Alexandra Zaïnal
Conception & Développement : Baudouin d'Aumeries
Co-Programmation & Développement : Marc-Olivier Méhu
Soutien technique & logistique : Manuel Goepfert

Contact : metmap@orbifly.com




SOURCES & CREDITS :

   NOAA